LIPA METAR and TAF | Updated Today

LIPA METAR

Aviano Air Base

Observation time: 66 min. ago

LIPA 060655Z 05004KT 9999 FEW090 01/M00 Q1007 RMK FEW VIS MIN 9999 WIND THR05 /////KT WIND THR23 /////KT A2975 BLU

Need help? Read our tutorial on how to read METARs or read the parsed version below.

Aviano Air Base (LIPA) METAR

  • Weather conditions on Mon, 06 Dec 2021 06:55:00 +0000 (66 min. ago):
  • Present conditions: Dry
  • Clouds: A few at 2743 meters
  • Visibility: Greater than 10 km
  • Wind: 50 degrees at 4 knots
  • Temperature: 1 celsius
  • Dew point: 0 celsius
  • Pressure: 1007 millibars
  • Remarks: FEW VIS MIN 9999 WIND THR05 /////KT WIND THR23 /////KT A2975 BLU


Useful to know...

LIPA TAF

Aviano Air Base

TAF LIPA 060500Z 0606/0615 08005KT 9999 FEW090
Observation time: 3:01 hr. ago
Need help? Read our tutorial on how to read TAFs or read the parsed version below.

Parsed version of TAF for Aviano Air Base (LIPA)

  • From 06 December at 06:00 UTC, to day 06 of the month at 15:00 UTC
  • Clouds: A few at 2743 meters
  • Visibility: Greater than 10 km
  • Wind: 80 degrees at 5